Olympic Champion — SYWD — position and weather

sailwx.info

Track history (hours):
 
Tides and Currents Weather Stations Pressure Air Temp Water Temp Dewpoint Dewpoint Depression Visibility Wind Speed Wind Dir Waves Ship Positions

Olympic Champion

Last reported at 2014-Jul-30 14:33 UTC. Time now 2014-Jul-30 15:20 UTC.
Position N 37°57' E 023°38'.

Length 204 m; draft 6.4 m.

Type: Passenger vessel. MMSI: 237280000.

Date/timePositionNaut miles runAvg speedWind from/ knotsBaromVisibWave heightAir tempDewpointWater temp
2014-Jul-30 14:33N 37°57' E 023°38'0 0.0
2014-Jul-30 13:33N 37°57' E 023°38'0 0.0
2014-Jul-30 12:33N 37°57' E 023°38'0 0.0
2014-Jul-30 11:33N 37°57' E 023°38'0 0.0
2014-Jul-30 10:33N 37°57' E 023°38'0 0.0
2014-Jul-30 09:33N 37°57' E 023°38'0 0.0
2014-Jul-30 08:33N 37°57' E 023°38'0 0.0
2014-Jul-30 07:33N 37°57' E 023°38'0 0.0
2014-Jul-30 06:33N 37°57' E 023°38'0 0.0
2014-Jul-30 05:33N 37°57' E 023°38'0 0.0
2014-Jul-30 04:33N 37°57' E 023°38'2 1.7
2014-Jul-30 03:33N 37°55' E 023°37'1818.3
2014-Jul-30 02:33N 37°38' E 023°46'4018.4
2014-Jul-30 00:24N 36°59' E 023°55'1618.3
2014-Jul-29 23:32N 36°44' E 023°58'2118.3
2014-Jul-29 22:23N 36°23' E 024°03'1618.2
2014-Jul-29 21:30N 36°07' E 024°06'16 0.8
2014-Jul-29 02:05N 35°52' E 024°06'1118.0
2014-Jul-29 01:30N 36°02' E 024°06'1818.5
2014-Jul-29 00:32N 36°20' E 024°03'2318.5
2014-Jul-28 23:18N 36°42' E 023°58'1418.7
2014-Jul-28 22:33N 36°56' E 023°55'2518.8
2014-Jul-28 21:11N 37°21' E 023°48'1518.8
2014-Jul-28 20:25N 37°35' E 023°44'1618.8
2014-Jul-28 19:33N 37°50' E 023°36'7 6.7
2014-Jul-28 18:33N 37°57' E 023°38'0 0.0
2014-Jul-28 17:33N 37°57' E 023°38'0 0.0
2014-Jul-28 16:33N 37°57' E 023°38'0 0.0
2014-Jul-28 15:33N 37°57' E 023°38'0 0.0
2014-Jul-28 14:33N 37°57' E 023°38'0 0.0
2014-Jul-28 13:33N 37°57' E 023°38'0 0.0
2014-Jul-28 12:33N 37°57' E 023°38'0 0.0
2014-Jul-28 11:33N 37°57' E 023°38'0 0.0
2014-Jul-28 10:33N 37°57' E 023°38'0 0.0
2014-Jul-28 09:33N 37°57' E 023°38'0 0.0
2014-Jul-28 08:33N 37°57' E 023°38'0 0.0
2014-Jul-28 07:33N 37°57' E 023°38'0 0.0
2014-Jul-28 06:33N 37°57' E 023°38'0 0.0
2014-Jul-28 05:33N 37°57' E 023°38'0 0.0
2014-Jul-28 04:33N 37°57' E 023°38'2 2.1
2014-Jul-28 03:33N 37°55' E 023°37'1919.0
2014-Jul-28 02:33N 37°37' E 023°46'1919.2
2014-Jul-28 01:33N 37°18' E 023°50'2218.6
2014-Jul-28 00:23N 36°57' E 023°55'1518.4
2014-Jul-27 23:33N 36°42' E 023°58'3718.0
2014-Jul-27 21:30N 36°06' E 024°07'3618.2
2014-Jul-27 19:32N 35°30' E 024°12'20 4.8
2014-Jul-27 15:18N 35°51' E 024°10'4421.1
2014-Jul-27 13:12N 36°34' E 024°00'5721.0
2014-Jul-27 10:31N 37°29' E 023°45'2021.0
2014-Jul-27 09:33N 37°49' E 023°37'8 8.1
2014-Jul-27 08:33N 37°57' E 023°38'0 0.0
2014-Jul-27 07:33N 37°57' E 023°38'0 0.0
2014-Jul-27 06:33N 37°57' E 023°38'0 0.0
2014-Jul-27 05:33N 37°57' E 023°38'0 0.0
2014-Jul-27 04:33N 37°57' E 023°38'1 0.9
2014-Jul-27 03:32N 37°56' E 023°37'1616.7
2014-Jul-27 02:33N 37°41' E 023°45'9618.7
2014-Jul-26 21:27N 36°07' E 024°07'2018.9
2014-Jul-26 20:24N 35°47' E 024°10'1618.5
2014-Jul-26 19:31N 35°31' E 024°13'8211.4
2014-Jul-26 12:21N 36°52' E 023°56'4521.0
2014-Jul-26 10:11N 37°36' E 023°43'1321.0
2014-Jul-26 09:33N 37°49' E 023°37'8 8.2
2014-Jul-26 08:33N 37°57' E 023°38'0 0.0
2014-Jul-26 07:33N 37°57' E 023°38'0 0.0
2014-Jul-26 06:33N 37°57' E 023°38'0 0.0
2014-Jul-26 05:33N 37°57' E 023°38'0 0.0
2014-Jul-26 04:34N 37°57' E 023°38'2 2.4
2014-Jul-26 03:33N 37°55' E 023°37'1817.4
2014-Jul-26 02:33N 37°39' E 023°46'6218.2
2014-Jul-25 23:09N 36°38' E 023°59'1618.6
2014-Jul-25 22:18N 36°22' E 024°03'1618.6
2014-Jul-25 21:25N 36°06' E 024°06'29 3.5
2014-Jul-25 13:09N 36°35' E 024°01'6521.5
2014-Jul-25 10:07N 37°38' E 023°43'1322.2
2014-Jul-25 09:33N 37°50' E 023°37'7 7.2
2014-Jul-25 08:33N 37°57' E 023°38'0 0.0
2014-Jul-25 07:33N 37°57' E 023°38'0 0.0
2014-Jul-25 06:33N 37°57' E 023°38'0 0.0
2014-Jul-25 05:33N 37°57' E 023°38'0 0.0
2014-Jul-25 04:11N 37°57' E 023°38'3 4.3
2014-Jul-25 03:33N 37°54' E 023°38'8018.3
2014-Jul-24 23:11N 36°36' E 023°60'1418.4
2014-Jul-24 22:25N 36°22' E 024°03'31 1.5
2014-Jul-24 02:07N 35°52' E 024°11'1118.0
2014-Jul-24 01:32N 36°02' E 024°08'1818.6
2014-Jul-24 00:33N 36°20' E 024°04'2518.5
2014-Jul-23 23:12N 36°44' E 023°58'1218.8
2014-Jul-23 22:33N 36°57' E 023°55'1918.8
2014-Jul-23 21:33N 37°15' E 023°50'2218.6
2014-Jul-23 20:22N 37°36' E 023°43'1518.5
2014-Jul-23 19:33N 37°50' E 023°37'7 6.5
2014-Jul-23 18:33N 37°57' E 023°38'0 0.0
2014-Jul-23 17:33N 37°57' E 023°38'0 0.0
2014-Jul-23 16:33N 37°57' E 023°38'0 0.0
2014-Jul-23 15:33N 37°57' E 023°38'0 0.0
2014-Jul-23 14:33N 37°57' E 023°38'0 0.0
2014-Jul-23 13:33N 37°57' E 023°38'0 0.0
2014-Jul-23 12:33N 37°57' E 023°38'0 0.0
2014-Jul-23 11:33N 37°57' E 023°38'0 0.0
2014-Jul-23 09:33N 37°57' E 023°38'0 0.0
2014-Jul-23 08:33N 37°57' E 023°38'0 0.0
2014-Jul-23 07:33N 37°57' E 023°38'0 0.0
2014-Jul-23 06:33N 37°57' E 023°38'0 0.0
2014-Jul-23 05:33N 37°57' E 023°38'4 2.2
2014-Jul-23 03:33N 37°53' E 023°39'4418.4
2014-Jul-23 01:09N 37°10' E 023°53'1118.0
2014-Jul-23 00:32N 36°59' E 023°55'1818.0
2014-Jul-22 23:33N 36°41' E 023°59'1817.6
2014-Jul-22 22:31N 36°24' E 024°02'1717.7
2014-Jul-22 21:33N 36°07' E 024°07'3717.7
2014-Jul-22 19:28N 35°30' E 024°12'13 0.7
2014-Jul-22 02:32N 35°43' E 024°12'2119.1
2014-Jul-22 01:25N 36°04' E 024°07'1819.2
2014-Jul-22 00:28N 36°22' E 024°03'2319.3
2014-Jul-21 23:16N 36°45' E 023°59'5218.4
2014-Jul-21 20:26N 37°36' E 023°44'318.0
2014-Jul-21 20:17N 37°38' E 023°43'1318.4
2014-Jul-21 19:33N 37°51' E 023°37'6 6.4
2014-Jul-21 18:33N 37°57' E 023°38'0 0.0
2014-Jul-21 17:33N 37°57' E 023°38'0 0.0
2014-Jul-21 16:33N 37°57' E 023°38'0 0.0
2014-Jul-21 15:33N 37°57' E 023°38'0 0.0
2014-Jul-21 14:33N 37°57' E 023°38'0 0.0
2014-Jul-21 13:33N 37°57' E 023°38'0 0.0
2014-Jul-21 12:33N 37°57' E 023°38'0 0.0
2014-Jul-21 11:33N 37°57' E 023°38'0 0.0
2014-Jul-21 10:33N 37°57' E 023°38'0 0.0
2014-Jul-21 09:33N 37°57' E 023°38'0 0.0
2014-Jul-21 08:33N 37°57' E 023°38'0 0.0
2014-Jul-21 07:33N 37°57' E 023°38'0 0.0
2014-Jul-21 06:33N 37°57' E 023°38'3 1.2
2014-Jul-21 03:33N 37°53' E 023°38'5418.1
2014-Jul-21 00:33N 37°01' E 023°55'2418.1
2014-Jul-20 23:15N 36°38' E 024°01'1818.1
2014-Jul-20 22:14N 36°19' E 024°04'1318.4
2014-Jul-20 21:33N 36°07' E 024°06'1918.5
2014-Jul-20 20:31N 35°48' E 024°10'1 0.1
2014-Jul-20 15:24N 35°48' E 024°10'  
Track history (hours):
 
Tides and Currents Weather Stations Pressure Air Temp Water Temp Dewpoint Dewpoint Depression Visibility Wind Speed Wind Dir Waves Ship Positions

Olympic Champion

Last reported at 2014-Jul-30 14:33 UTC. Time now 2014-Jul-30 15:20 UTC.
Position N 37°57' E 023°38'.

Length 204 m; draft 6.4 m.

Type: Passenger vessel. MMSI: 237280000.

Date/timePositionNaut miles runAvg speedWind from/ knotsBaromVisibWave heightAir tempDewpointWater temp
2014-Jul-30 14:33N 37°57' E 023°38'0 0.0
2014-Jul-30 13:33N 37°57' E 023°38'0 0.0
2014-Jul-30 12:33N 37°57' E 023°38'0 0.0
2014-Jul-30 11:33N 37°57' E 023°38'0 0.0
2014-Jul-30 10:33N 37°57' E 023°38'0 0.0
2014-Jul-30 09:33N 37°57' E 023°38'0 0.0
2014-Jul-30 08:33N 37°57' E 023°38'0 0.0
2014-Jul-30 07:33N 37°57' E 023°38'0 0.0
2014-Jul-30 06:33N 37°57' E 023°38'0 0.0
2014-Jul-30 05:33N 37°57' E 023°38'0 0.0
2014-Jul-30 04:33N 37°57' E 023°38'2 1.7
2014-Jul-30 03:33N 37°55' E 023°37'1818.3
2014-Jul-30 02:33N 37°38' E 023°46'4018.4
2014-Jul-30 00:24N 36°59' E 023°55'1618.3
2014-Jul-29 23:32N 36°44' E 023°58'2118.3
2014-Jul-29 22:23N 36°23' E 024°03'1618.2
2014-Jul-29 21:30N 36°07' E 024°06'16 0.8
2014-Jul-29 02:05N 35°52' E 024°06'1118.0
2014-Jul-29 01:30N 36°02' E 024°06'1818.5
2014-Jul-29 00:32N 36°20' E 024°03'2318.5
2014-Jul-28 23:18N 36°42' E 023°58'1418.7
2014-Jul-28 22:33N 36°56' E 023°55'2518.8
2014-Jul-28 21:11N 37°21' E 023°48'1518.8
2014-Jul-28 20:25N 37°35' E 023°44'1618.8
2014-Jul-28 19:33N 37°50' E 023°36'7 6.7
2014-Jul-28 18:33N 37°57' E 023°38'0 0.0
2014-Jul-28 17:33N 37°57' E 023°38'0 0.0
2014-Jul-28 16:33N 37°57' E 023°38'0 0.0
2014-Jul-28 15:33N 37°57' E 023°38'0 0.0
2014-Jul-28 14:33N 37°57' E 023°38'0 0.0
2014-Jul-28 13:33N 37°57' E 023°38'0 0.0
2014-Jul-28 12:33N 37°57' E 023°38'0 0.0
2014-Jul-28 11:33N 37°57' E 023°38'0 0.0
2014-Jul-28 10:33N 37°57' E 023°38'0 0.0
2014-Jul-28 09:33N 37°57' E 023°38'0 0.0
2014-Jul-28 08:33N 37°57' E 023°38'0 0.0
2014-Jul-28 07:33N 37°57' E 023°38'0 0.0
2014-Jul-28 06:33N 37°57' E 023°38'0 0.0
2014-Jul-28 05:33N 37°57' E 023°38'0 0.0
2014-Jul-28 04:33N 37°57' E 023°38'2 2.1
2014-Jul-28 03:33N 37°55' E 023°37'1919.0
2014-Jul-28 02:33N 37°37' E 023°46'1919.2
2014-Jul-28 01:33N 37°18' E 023°50'2218.6
2014-Jul-28 00:23N 36°57' E 023°55'1518.4
2014-Jul-27 23:33N 36°42' E 023°58'3718.0
2014-Jul-27 21:30N 36°06' E 024°07'3618.2
2014-Jul-27 19:32N 35°30' E 024°12'20 4.8
2014-Jul-27 15:18N 35°51' E 024°10'4421.1
2014-Jul-27 13:12N 36°34' E 024°00'5721.0
2014-Jul-27 10:31N 37°29' E 023°45'2021.0
2014-Jul-27 09:33N 37°49' E 023°37'8 8.1
2014-Jul-27 08:33N 37°57' E 023°38'0 0.0
2014-Jul-27 07:33N 37°57' E 023°38'0 0.0
2014-Jul-27 06:33N 37°57' E 023°38'0 0.0
2014-Jul-27 05:33N 37°57' E 023°38'0 0.0
2014-Jul-27 04:33N 37°57' E 023°38'1 0.9
2014-Jul-27 03:32N 37°56' E 023°37'1616.7
2014-Jul-27 02:33N 37°41' E 023°45'9618.7
2014-Jul-26 21:27N 36°07' E 024°07'2018.9
2014-Jul-26 20:24N 35°47' E 024°10'1618.5
2014-Jul-26 19:31N 35°31' E 024°13'8211.4
2014-Jul-26 12:21N 36°52' E 023°56'4521.0
2014-Jul-26 10:11N 37°36' E 023°43'1321.0
2014-Jul-26 09:33N 37°49' E 023°37'8 8.2
2014-Jul-26 08:33N 37°57' E 023°38'0 0.0
2014-Jul-26 07:33N 37°57' E 023°38'0 0.0
2014-Jul-26 06:33N 37°57' E 023°38'0 0.0
2014-Jul-26 05:33N 37°57' E 023°38'0 0.0
2014-Jul-26 04:34N 37°57' E 023°38'2 2.4
2014-Jul-26 03:33N 37°55' E 023°37'1817.4
2014-Jul-26 02:33N 37°39' E 023°46'6218.2
2014-Jul-25 23:09N 36°38' E 023°59'1618.6
2014-Jul-25 22:18N 36°22' E 024°03'1618.6
2014-Jul-25 21:25N 36°06' E 024°06'29 3.5
2014-Jul-25 13:09N 36°35' E 024°01'6521.5
2014-Jul-25 10:07N 37°38' E 023°43'1322.2
2014-Jul-25 09:33N 37°50' E 023°37'7 7.2
2014-Jul-25 08:33N 37°57' E 023°38'0 0.0
2014-Jul-25 07:33N 37°57' E 023°38'0 0.0
2014-Jul-25 06:33N 37°57' E 023°38'0 0.0
2014-Jul-25 05:33N 37°57' E 023°38'0 0.0
2014-Jul-25 04:11N 37°57' E 023°38'3 4.3
2014-Jul-25 03:33N 37°54' E 023°38'8018.3
2014-Jul-24 23:11N 36°36' E 023°60'1418.4
2014-Jul-24 22:25N 36°22' E 024°03'31 1.5
2014-Jul-24 02:07N 35°52' E 024°11'1118.0
2014-Jul-24 01:32N 36°02' E 024°08'1818.6
2014-Jul-24 00:33N 36°20' E 024°04'2518.5
2014-Jul-23 23:12N 36°44' E 023°58'1218.8
2014-Jul-23 22:33N 36°57' E 023°55'1918.8
2014-Jul-23 21:33N 37°15' E 023°50'2218.6
2014-Jul-23 20:22N 37°36' E 023°43'1518.5
2014-Jul-23 19:33N 37°50' E 023°37'7 6.5
2014-Jul-23 18:33N 37°57' E 023°38'0 0.0
2014-Jul-23 17:33N 37°57' E 023°38'0 0.0
2014-Jul-23 16:33N 37°57' E 023°38'0 0.0
2014-Jul-23 15:33N 37°57' E 023°38'0 0.0
2014-Jul-23 14:33N 37°57' E 023°38'0 0.0
2014-Jul-23 13:33N 37°57' E 023°38'0 0.0
2014-Jul-23 12:33N 37°57' E 023°38'0 0.0
2014-Jul-23 11:33N 37°57' E 023°38'0 0.0
2014-Jul-23 09:33N 37°57' E 023°38'0 0.0
2014-Jul-23 08:33N 37°57' E 023°38'0 0.0
2014-Jul-23 07:33N 37°57' E 023°38'0 0.0
2014-Jul-23 06:33N 37°57' E 023°38'0 0.0
2014-Jul-23 05:33N 37°57' E 023°38'4 2.2
2014-Jul-23 03:33N 37°53' E 023°39'4418.4
2014-Jul-23 01:09N 37°10' E 023°53'1118.0
2014-Jul-23 00:32N 36°59' E 023°55'1818.0
2014-Jul-22 23:33N 36°41' E 023°59'1817.6
2014-Jul-22 22:31N 36°24' E 024°02'1717.7
2014-Jul-22 21:33N 36°07' E 024°07'3717.7
2014-Jul-22 19:28N 35°30' E 024°12'13 0.7
2014-Jul-22 02:32N 35°43' E 024°12'2119.1
2014-Jul-22 01:25N 36°04' E 024°07'1819.2
2014-Jul-22 00:28N 36°22' E 024°03'2319.3
2014-Jul-21 23:16N 36°45' E 023°59'5218.4
2014-Jul-21 20:26N 37°36' E 023°44'318.0
2014-Jul-21 20:17N 37°38' E 023°43'1318.4
2014-Jul-21 19:33N 37°51' E 023°37'6 6.4
2014-Jul-21 18:33N 37°57' E 023°38'0 0.0
2014-Jul-21 17:33N 37°57' E 023°38'0 0.0
2014-Jul-21 16:33N 37°57' E 023°38'0 0.0
2014-Jul-21 15:33N 37°57' E 023°38'0 0.0
2014-Jul-21 14:33N 37°57' E 023°38'0 0.0
2014-Jul-21 13:33N 37°57' E 023°38'0 0.0
2014-Jul-21 12:33N 37°57' E 023°38'0 0.0
2014-Jul-21 11:33N 37°57' E 023°38'0 0.0
2014-Jul-21 10:33N 37°57' E 023°38'0 0.0
2014-Jul-21 09:33N 37°57' E 023°38'0 0.0
2014-Jul-21 08:33N 37°57' E 023°38'0 0.0
2014-Jul-21 07:33N 37°57' E 023°38'0 0.0
2014-Jul-21 06:33N 37°57' E 023°38'3 1.2
2014-Jul-21 03:33N 37°53' E 023°38'5418.1
2014-Jul-21 00:33N 37°01' E 023°55'2418.1
2014-Jul-20 23:15N 36°38' E 024°01'1818.1
2014-Jul-20 22:14N 36°19' E 024°04'1318.4
2014-Jul-20 21:33N 36°07' E 024°06'1918.5
2014-Jul-20 20:31N 35°48' E 024°10'1 0.1
2014-Jul-20 15:24N 35°48' E 024°10'  

Dump ship's entire track history